MTN2674 TJSJ-TISX
Flight info
| Callsign | MTN2674 |
|---|---|
| Flight time | 0h 33m |
| Altitude | FL170 |
| Route | SJU RTE2 COY |
| Aircraft | AT46/M-S/N |
Departure
| Time | 2026-04-16 13:25 |
|---|---|
| Airport | Luis Munoz Marin International Airport (TJSJ) |
Arrival
| Time | 2026-04-16 13:59 |
|---|---|
| Airport | Henry E. Rohlsen Airport (TISX) |
| Time | Latitude | Longitude | Altitude | Speed | Heading |
|---|---|---|---|---|---|
| 2026-04-16 13:12 | 18.44034 | -66.00480 | 5 ft | 0 kts | 177° |
| 2026-04-16 13:13 | 18.44035 | -66.00480 | 14 ft | 2 kts | 177° |
| 2026-04-16 13:14 | 18.44049 | -66.00480 | 16 ft | 0 kts | 178° |
| 2026-04-16 13:20 | 18.44053 | -66.00481 | 14 ft | 2 kts | 182° |
| 2026-04-16 13:20 | 18.44049 | -66.00519 | 14 ft | 14 kts | 276° |
| 2026-04-16 13:20 | 18.44057 | -66.00657 | 14 ft | 21 kts | 251° |
| 2026-04-16 13:21 | 18.44000 | -66.00795 | 15 ft | 20 kts | 248° |
| 2026-04-16 13:21 | 18.43947 | -66.00927 | 14 ft | 19 kts | 247° |
| 2026-04-16 13:21 | 18.43895 | -66.01058 | 14 ft | 19 kts | 248° |
| 2026-04-16 13:21 | 18.43859 | -66.01158 | 14 ft | 5 kts | 251° |
| 2026-04-16 13:22 | 18.43841 | -66.01204 | 14 ft | 10 kts | 249° |
| 2026-04-16 13:22 | 18.43812 | -66.01285 | 14 ft | 14 kts | 250° |
| 2026-04-16 13:22 | 18.43817 | -66.01342 | 14 ft | 6 kts | 310° |
| 2026-04-16 13:22 | 18.43828 | -66.01353 | 14 ft | 0 kts | 319° |
| 2026-04-16 13:24 | 18.43839 | -66.01361 | 14 ft | 6 kts | 326° |
| 2026-04-16 13:24 | 18.43909 | -66.01375 | 14 ft | 12 kts | 28° |
| 2026-04-16 13:24 | 18.43915 | -66.01373 | 14 ft | 1 kts | 56° |
| 2026-04-16 13:24 | 18.43949 | -66.01298 | 14 ft | 1 kts | 67° |
| 2026-04-16 13:25 | 18.44028 | -66.01102 | 14 ft | 67 kts | 66° |
| 2026-04-16 13:25 | 18.44300 | -66.00443 | 38 ft | 120 kts | 65° |
| 2026-04-16 13:25 | 18.44711 | -65.99728 | 461 ft | 115 kts | 57° |
| 2026-04-16 13:25 | 18.45283 | -65.99042 | 705 ft | 129 kts | 52° |
| 2026-04-16 13:26 | 18.45900 | -65.98345 | 1069 ft | 135 kts | 52° |
| 2026-04-16 13:26 | 18.46429 | -65.97567 | 1490 ft | 131 kts | 81° |
| 2026-04-16 13:26 | 18.46328 | -65.96623 | 1889 ft | 130 kts | 101° |
| 2026-04-16 13:26 | 18.46186 | -65.95687 | 2499 ft | 129 kts | 99° |
| 2026-04-16 13:27 | 18.46064 | -65.94759 | 3174 ft | 127 kts | 98° |
| 2026-04-16 13:27 | 18.45972 | -65.93846 | 3832 ft | 126 kts | 96° |
| 2026-04-16 13:27 | 18.45901 | -65.92865 | 4275 ft | 144 kts | 95° |
| 2026-04-16 13:27 | 18.45879 | -65.91778 | 4810 ft | 151 kts | 91° |
| 2026-04-16 13:28 | 18.45884 | -65.90670 | 5416 ft | 152 kts | 91° |
| 2026-04-16 13:28 | 18.45891 | -65.89542 | 6019 ft | 153 kts | 91° |
| 2026-04-16 13:28 | 18.45902 | -65.88410 | 6607 ft | 156 kts | 91° |
| 2026-04-16 13:28 | 18.45908 | -65.87247 | 7141 ft | 159 kts | 91° |
| 2026-04-16 13:29 | 18.45908 | -65.86060 | 7660 ft | 166 kts | 91° |
| 2026-04-16 13:29 | 18.45907 | -65.84837 | 8209 ft | 168 kts | 91° |
| 2026-04-16 13:29 | 18.45910 | -65.83597 | 8740 ft | 171 kts | 91° |
| 2026-04-16 13:29 | 18.45915 | -65.82334 | 9271 ft | 175 kts | 91° |
| 2026-04-16 13:30 | 18.45910 | -65.81043 | 9792 ft | 179 kts | 92° |
| 2026-04-16 13:30 | 18.45920 | -65.79727 | 10291 ft | 181 kts | 90° |
| 2026-04-16 13:30 | 18.45970 | -65.78396 | 10779 ft | 184 kts | 88° |
| 2026-04-16 13:30 | 18.46045 | -65.77049 | 11278 ft | 186 kts | 89° |
| 2026-04-16 13:31 | 18.46131 | -65.75688 | 11772 ft | 187 kts | 87° |
| 2026-04-16 13:31 | 18.46220 | -65.74317 | 12260 ft | 189 kts | 87° |
| 2026-04-16 13:31 | 18.46313 | -65.72936 | 12759 ft | 190 kts | 88° |
| 2026-04-16 13:31 | 18.46419 | -65.71537 | 13228 ft | 193 kts | 89° |
| 2026-04-16 13:32 | 18.46535 | -65.70121 | 13687 ft | 196 kts | 89° |
| 2026-04-16 13:32 | 18.46637 | -65.68693 | 14120 ft | 197 kts | 87° |
| 2026-04-16 13:32 | 18.46731 | -65.67258 | 14556 ft | 196 kts | 88° |
| 2026-04-16 13:32 | 18.46832 | -65.65813 | 14937 ft | 199 kts | 90° |
| 2026-04-16 13:33 | 18.46930 | -65.64350 | 15297 ft | 202 kts | 89° |
| 2026-04-16 13:33 | 18.47021 | -65.62877 | 15749 ft | 203 kts | 88° |
| 2026-04-16 13:33 | 18.47124 | -65.61394 | 16315 ft | 204 kts | 88° |
| 2026-04-16 13:33 | 18.47219 | -65.59902 | 16888 ft | 207 kts | 89° |
| 2026-04-16 13:34 | 18.47307 | -65.58287 | 16972 ft | 236 kts | 90° |
| 2026-04-16 13:34 | 18.47385 | -65.56469 | 16996 ft | 262 kts | 90° |
| 2026-04-16 13:34 | 18.47485 | -65.54483 | 17005 ft | 282 kts | 89° |
| 2026-04-16 13:34 | 18.47633 | -65.52368 | 17004 ft | 298 kts | 88° |
| 2026-04-16 13:35 | 18.47790 | -65.50153 | 17004 ft | 309 kts | 87° |
| 2026-04-16 13:35 | 18.47944 | -65.47864 | 17000 ft | 318 kts | 87° |
| 2026-04-16 13:35 | 18.48109 | -65.45528 | 17001 ft | 323 kts | 87° |
| 2026-04-16 13:35 | 18.48284 | -65.43150 | 17000 ft | 328 kts | 87° |
| 2026-04-16 13:36 | 18.48436 | -65.40775 | 16994 ft | 319 kts | 88° |
| 2026-04-16 13:36 | 18.48570 | -65.38504 | 16993 ft | 306 kts | 89° |
| 2026-04-16 13:36 | 18.48712 | -65.36256 | 16995 ft | 311 kts | 88° |
| 2026-04-16 13:36 | 18.48860 | -65.33972 | 16988 ft | 315 kts | 88° |
| 2026-04-16 13:37 | 18.49007 | -65.31664 | 17003 ft | 318 kts | 87° |
| 2026-04-16 13:37 | 18.49153 | -65.29341 | 17001 ft | 317 kts | 89° |
| 2026-04-16 13:37 | 18.48790 | -65.27079 | 17002 ft | 316 kts | 111° |
| 2026-04-16 13:37 | 18.47871 | -65.24988 | 17001 ft | 316 kts | 121° |
| 2026-04-16 13:38 | 18.46775 | -65.22976 | 17000 ft | 318 kts | 122° |
| 2026-04-16 13:38 | 18.45728 | -65.20926 | 16997 ft | 319 kts | 120° |
| 2026-04-16 13:38 | 18.44695 | -65.18864 | 16981 ft | 320 kts | 120° |
| 2026-04-16 13:38 | 18.43668 | -65.16781 | 16846 ft | 317 kts | 120° |
| 2026-04-16 13:39 | 18.42629 | -65.14826 | 16713 ft | 296 kts | 128° |
| 2026-04-16 13:39 | 18.41117 | -65.13494 | 16491 ft | 279 kts | 158° |
| 2026-04-16 13:39 | 18.39313 | -65.12829 | 16219 ft | 273 kts | 166° |
| 2026-04-16 13:39 | 18.37512 | -65.12279 | 15950 ft | 268 kts | 167° |
| 2026-04-16 13:40 | 18.35735 | -65.11755 | 15683 ft | 264 kts | 167° |
| 2026-04-16 13:40 | 18.33982 | -65.11231 | 15422 ft | 261 kts | 164° |
| 2026-04-16 13:40 | 18.32385 | -65.10355 | 15159 ft | 264 kts | 140° |
| 2026-04-16 13:40 | 18.31432 | -65.08725 | 14899 ft | 267 kts | 108° |
| 2026-04-16 13:41 | 18.31421 | -65.06815 | 14646 ft | 263 kts | 76° |
| 2026-04-16 13:41 | 18.32328 | -65.05199 | 14397 ft | 257 kts | 43° |
| 2026-04-16 13:41 | 18.33835 | -65.04275 | 14098 ft | 249 kts | 21° |
| 2026-04-16 13:41 | 18.35280 | -65.03346 | 13767 ft | 244 kts | 49° |
| 2026-04-16 13:42 | 18.35989 | -65.01771 | 13401 ft | 240 kts | 84° |
| 2026-04-16 13:42 | 18.35737 | -65.00085 | 13042 ft | 233 kts | 119° |
| 2026-04-16 13:42 | 18.34647 | -64.98891 | 12704 ft | 227 kts | 154° |
| 2026-04-16 13:42 | 18.33203 | -64.98245 | 12388 ft | 227 kts | 160° |
| 2026-04-16 13:43 | 18.31697 | -64.97676 | 12121 ft | 234 kts | 162° |
| 2026-04-16 13:43 | 18.30135 | -64.97117 | 11854 ft | 241 kts | 162° |
| 2026-04-16 13:43 | 18.28529 | -64.96573 | 11589 ft | 245 kts | 163° |
| 2026-04-16 13:43 | 18.26885 | -64.96035 | 11323 ft | 250 kts | 163° |
| 2026-04-16 13:44 | 18.25207 | -64.95497 | 11060 ft | 253 kts | 164° |
| 2026-04-16 13:44 | 18.23470 | -64.95228 | 10804 ft | 255 kts | 177° |
| 2026-04-16 13:44 | 18.21686 | -64.95153 | 10538 ft | 258 kts | 179° |
| 2026-04-16 13:44 | 18.19891 | -64.95117 | 10279 ft | 260 kts | 179° |
| 2026-04-16 13:45 | 18.18082 | -64.95099 | 10037 ft | 261 kts | 180° |
| 2026-04-16 13:45 | 18.16266 | -64.95091 | 9765 ft | 262 kts | 180° |
| 2026-04-16 13:45 | 18.14444 | -64.95095 | 9484 ft | 263 kts | 180° |
| 2026-04-16 13:45 | 18.12622 | -64.95107 | 9206 ft | 262 kts | 180° |
| 2026-04-16 13:46 | 18.10801 | -64.95132 | 8925 ft | 262 kts | 180° |
| 2026-04-16 13:46 | 18.08984 | -64.95171 | 8653 ft | 261 kts | 180° |
| 2026-04-16 13:46 | 18.07173 | -64.95220 | 8378 ft | 261 kts | 180° |
| 2026-04-16 13:46 | 18.05370 | -64.95276 | 8111 ft | 259 kts | 180° |
| 2026-04-16 13:47 | 18.03574 | -64.95331 | 7846 ft | 259 kts | 180° |
| 2026-04-16 13:47 | 18.01783 | -64.95397 | 7568 ft | 257 kts | 179° |
| 2026-04-16 13:47 | 18.00002 | -64.95473 | 7302 ft | 256 kts | 179° |
| 2026-04-16 13:47 | 17.98228 | -64.95564 | 7053 ft | 255 kts | 179° |
| 2026-04-16 13:48 | 17.96461 | -64.95660 | 6805 ft | 255 kts | 180° |
| 2026-04-16 13:48 | 17.94694 | -64.95758 | 6550 ft | 254 kts | 180° |
| 2026-04-16 13:48 | 17.92929 | -64.95854 | 6284 ft | 255 kts | 180° |
| 2026-04-16 13:48 | 17.91166 | -64.95953 | 6007 ft | 254 kts | 180° |
| 2026-04-16 13:49 | 17.89406 | -64.96056 | 5738 ft | 253 kts | 180° |
| 2026-04-16 13:49 | 17.87656 | -64.96232 | 5464 ft | 254 kts | 183° |
| 2026-04-16 13:49 | 17.85911 | -64.96470 | 5192 ft | 253 kts | 184° |
| 2026-04-16 13:49 | 17.84169 | -64.96735 | 4939 ft | 253 kts | 184° |
| 2026-04-16 13:50 | 17.82436 | -64.97008 | 4667 ft | 252 kts | 184° |
| 2026-04-16 13:50 | 17.80749 | -64.97298 | 4400 ft | 240 kts | 185° |
| 2026-04-16 13:50 | 17.79152 | -64.97585 | 4132 ft | 226 kts | 185° |
| 2026-04-16 13:50 | 17.77705 | -64.97846 | 3864 ft | 199 kts | 185° |
| 2026-04-16 13:51 | 17.76408 | -64.98089 | 3580 ft | 181 kts | 185° |
| 2026-04-16 13:51 | 17.75306 | -64.98563 | 3312 ft | 173 kts | 219° |
| 2026-04-16 13:51 | 17.74777 | -64.99702 | 3042 ft | 182 kts | 250° |
| 2026-04-16 13:51 | 17.74460 | -65.00993 | 2765 ft | 184 kts | 252° |
| 2026-04-16 13:52 | 17.74030 | -65.02215 | 2508 ft | 175 kts | 224° |
| 2026-04-16 13:52 | 17.73035 | -65.02748 | 2261 ft | 155 kts | 172° |
| 2026-04-16 13:52 | 17.72157 | -65.02315 | 2109 ft | 134 kts | 136° |
| 2026-04-16 13:52 | 17.71450 | -65.01674 | 2053 ft | 136 kts | 136° |
| 2026-04-16 13:53 | 17.70738 | -65.01006 | 2029 ft | 138 kts | 135° |
| 2026-04-16 13:53 | 17.70028 | -65.00325 | 2022 ft | 139 kts | 135° |
| 2026-04-16 13:53 | 17.69324 | -64.99637 | 2016 ft | 139 kts | 134° |
| 2026-04-16 13:53 | 17.68623 | -64.98947 | 2019 ft | 138 kts | 133° |
| 2026-04-16 13:54 | 17.68297 | -64.98064 | 2038 ft | 136 kts | 85° |
| 2026-04-16 13:54 | 17.68474 | -64.97092 | 2014 ft | 136 kts | 87° |
| 2026-04-16 13:54 | 17.68582 | -64.96109 | 2023 ft | 136 kts | 88° |
| 2026-04-16 13:54 | 17.68660 | -64.95117 | 2026 ft | 137 kts | 89° |
| 2026-04-16 13:55 | 17.68765 | -64.94134 | 2015 ft | 133 kts | 88° |
| 2026-04-16 13:55 | 17.68862 | -64.93203 | 2005 ft | 125 kts | 89° |
| 2026-04-16 13:55 | 17.68957 | -64.92328 | 1997 ft | 117 kts | 90° |
| 2026-04-16 13:55 | 17.69017 | -64.91480 | 1838 ft | 117 kts | 90° |
| 2026-04-16 13:56 | 17.69095 | -64.90624 | 1671 ft | 119 kts | 88° |
| 2026-04-16 13:56 | 17.69187 | -64.89781 | 1523 ft | 112 kts | 88° |
| 2026-04-16 13:56 | 17.69275 | -64.88989 | 1331 ft | 109 kts | 88° |
| 2026-04-16 13:56 | 17.69366 | -64.88189 | 1192 ft | 113 kts | 90° |
| 2026-04-16 13:57 | 17.69438 | -64.87369 | 1007 ft | 114 kts | 91° |
| 2026-04-16 13:57 | 17.69500 | -64.86532 | 879 ft | 117 kts | 87° |
| 2026-04-16 13:57 | 17.69601 | -64.85685 | 665 ft | 120 kts | 86° |
| 2026-04-16 13:58 | 17.69785 | -64.83910 | 340 ft | 122 kts | 84° |
| 2026-04-16 13:58 | 17.69896 | -64.83090 | 325 ft | 108 kts | 88° |
| 2026-04-16 13:58 | 17.69950 | -64.82317 | 227 ft | 107 kts | 84° |
| 2026-04-16 13:58 | 17.70028 | -64.81535 | 116 ft | 110 kts | 86° |
| 2026-04-16 13:59 | 17.70107 | -64.80769 | 51 ft | 90 kts | 83° |
| 2026-04-16 13:59 | 17.70132 | -64.80492 | 45 ft | 44 kts | 84° |
| 2026-04-16 13:59 | 17.70169 | -64.80128 | 39 ft | 40 kts | 84° |
| 2026-04-16 13:59 | 17.70152 | -64.79874 | 35 ft | 31 kts | 108° |
| 2026-04-16 14:00 | 17.70128 | -64.79812 | 35 ft | 0 kts | 113° |
| 2026-04-16 14:00 | 17.70091 | -64.79720 | 34 ft | 13 kts | 112° |
| 2026-04-16 14:00 | 17.70037 | -64.79667 | 33 ft | 16 kts | 172° |
| 2026-04-16 14:01 | 17.69987 | -64.79664 | 33 ft | 8 kts | 212° |
| 2026-04-16 14:01 | 17.69977 | -64.79680 | 33 ft | 0 kts | 266° |